Redbank, Texas
Current Conditions -  °F | °C
As of 12:43 AM on Saturday 20 Dec 2014 (Local Time) from KTXK Reporting Station
Haze Haze  
Wind Chill: 44°   Ceiling: 800
Heat Index: 44°   Visibility: 6mi
Dew Point: 42°   Wind: 3mph
Humidity: 93%   Direction: 50°NE
Pressure: 30.21"   Gusts: NA
Location:  33.474°N, 94.2882°W
Report Text: KTXK 200643Z AUTO 05003KT 6SM BR OVC008 07/06 A3021 RMK AO2 CIG 007V012 T00670056
Loading
Personal Weather Stations






























Interactive Weather Map New forecast layout! Learn more

10-Day Weather Forecast

Advertisements
Track Severe Weather on mobile